Hardaway, Alabama
Current Conditions -  °F | °C
As of 8:53 PM on Sunday 21 Dec 2014 (Local Time) from KTOI Reporting Station
Haze Haze  
Wind Chill: 52°   Ceiling: 400
Heat Index: 52°   Visibility: 2.5mi
Dew Point: 51°   Wind: 3mph
Humidity: 97%   Direction: 60°ENE
Pressure: 30.05"   Gusts: NA
Location:  32.29°N, 85.85°W
Report Text: KTOI 220253Z AUTO 06003KT 2 1/2SM BR OVC004 11/11 A3005 RMK AO2 SLP174 T01110106 56002
Loading
Personal Weather Stations






























Interactive Weather Map New forecast layout! Learn more

10-Day Weather Forecast

Advertisements
Track Severe Weather on mobile